Laupheim Airport


Codes: ETHL/
Name: Laupheim Airport
City:
Country: Germany
Elevation: 1766 ft.

Photos at Laupheim Airport


   Photos courtesy of SpottingLog. You can add your own sightings and photos by signing up for a free trial today.



No photos found.

Weather at Laupheim Airport


Time (UTC)DescriptionTempratureWindCloud coverageVisibilityPressureHumidity
23-May-2024 21:00Moderate Rain11°C7 mph, SW75%10000m1017hPa93%
24-May-2024 00:00Light Rain11°C7 mph, SW83%10000m1017hPa95%
24-May-2024 03:00Light Rain10°C4 mph, SW92%10000m1018hPa95%
24-May-2024 06:00Light Rain10°C7 mph, SW100%10000m1019hPa95%
24-May-2024 09:00Overcast Clouds14°C2 mph, NW100%10000m1018hPa82%
24-May-2024 12:00Light Rain17°C2 mph, N88%10000m1017hPa68%
24-May-2024 15:00Light Rain17°C4 mph, NE90%10000m1016hPa70%
24-May-2024 18:00Light Rain14°C2 mph, NE95%5631m1017hPa85%
24-May-2024 21:00Light Rain11°C9 mph, SW100%10000m1019hPa96%
25-May-2024 00:00Light Rain10°C4 mph, SW100%10000m1019hPa93%
25-May-2024 03:00Overcast Clouds10°C4 mph, SW100%10000m1018hPa92%
25-May-2024 06:00Overcast Clouds11°C4 mph, SW100%10000m1019hPa91%
25-May-2024 09:00Overcast Clouds14°C2 mph, SE98%10000m1018hPa79%
25-May-2024 12:00Light Rain17°C4 mph, E68%10000m1017hPa71%
25-May-2024 15:00Light Rain18°C2 mph, NE39%10000m1017hPa64%
25-May-2024 18:00Light Rain15°C2 mph, SE29%8060m1017hPa84%
25-May-2024 21:00Light Rain11°C2 mph, SW29%10000m1019hPa89%
26-May-2024 00:00Few Clouds10°C4 mph, SW18%10000m1019hPa91%
26-May-2024 03:00Overcast Clouds9°C4 mph, SW100%10000m1019hPa92%
26-May-2024 06:00Overcast Clouds13°C4 mph, SW92%10000m1020hPa88%
26-May-2024 09:00Scattered Clouds18°C4 mph, SW44%10000m1020hPa73%
26-May-2024 12:00Broken Clouds20°C4 mph, SW72%10000m1019hPa63%
26-May-2024 15:00Overcast Clouds21°C4 mph, SW100%10000m1018hPa57%
26-May-2024 18:00Overcast Clouds17°C4 mph, N100%10000m1019hPa79%
26-May-2024 21:00Broken Clouds13°C2 mph, SE77%10000m1020hPa86%
27-May-2024 00:00Overcast Clouds12°C0 mph, NW86%10000m1020hPa88%
27-May-2024 03:00Overcast Clouds11°C2 mph, SE100%10000m1019hPa89%
27-May-2024 06:00Overcast Clouds15°C4 mph, E100%10000m1018hPa84%
27-May-2024 09:00Overcast Clouds20°C4 mph, E89%10000m1018hPa70%
27-May-2024 12:00Moderate Rain19°C9 mph, NW94%10000m1017hPa76%
27-May-2024 15:00Light Rain18°C7 mph, N100%10000m1016hPa80%
27-May-2024 18:00Light Rain16°C2 mph, NE100%10000m1017hPa87%
27-May-2024 21:00Light Rain14°C7 mph, W100%5547m1018hPa97%
28-May-2024 00:00Heavy Intensity Rain11°C9 mph, NW100%10000m1020hPa95%
28-May-2024 03:00Light Rain10°C7 mph, W89%10000m1021hPa96%
28-May-2024 06:00Light Rain11°C9 mph, W89%10000m1021hPa90%
28-May-2024 09:00Light Rain13°C11 mph, SW99%10000m1021hPa81%
28-May-2024 12:00Light Rain16°C9 mph, W87%10000m1019hPa67%
28-May-2024 15:00Light Rain16°C4 mph, W94%10000m1018hPa66%
28-May-2024 18:00Light Rain14°C4 mph, N92%10000m1018hPa82%